Time;durP1;ratioP1;P1;durP2;ratioP2;P2;SDS_P1;SDS_P2;PMS_P1;PMS_P2;Temp;Humidity;BMP_temperature;BMP_pressure;BME280_temperature;BME280_humidity;BME280_pressure;Samples;Min_cycle;Max_cycle;Signal;HPM_P1;HPM_P2
2024/02/11 00:00:10;;;;;;;33.57;16.37;;;6.30;99.90;;;;;;5011297;28;20642;-78
2024/02/11 00:02:57;;;;;;;34.27;16.50;;;6.20;99.90;;;;;;5011262;28;20272;-78
2024/02/11 00:05:45;;;;;;;33.23;16.93;;;6.20;99.90;;;;;;5011233;28;20705;-78
2024/02/11 00:08:33;;;;;;;33.90;16.70;;;6.20;99.90;;;;;;4998662;28;20211;-78
2024/02/11 00:11:21;;;;;;;36.63;17.37;;;6.30;99.90;;;;;;5013291;28;20758;-78
2024/02/11 00:14:09;;;;;;;36.40;16.67;;;6.20;99.90;;;;;;5011141;28;20227;-78
2024/02/11 00:16:59;;;;;;;37.50;17.33;;;6.20;99.90;;;;;;5011664;28;20194;-78
2024/02/11 00:19:47;;;;;;;39.13;17.17;;;6.20;99.90;;;;;;5013018;28;20215;-78
2024/02/11 00:22:35;;;;;;;35.47;17.13;;;6.10;99.90;;;;;;5011206;28;20652;-78
2024/02/11 00:25:24;;;;;;;33.90;16.83;;;6.10;99.90;;;;;;4997750;28;20550;-78
2024/02/11 00:28:11;;;;;;;39.10;17.27;;;6.10;99.90;;;;;;5011917;28;20221;-78
2024/02/11 00:30:59;;;;;;;34.80;17.20;;;6.10;99.90;;;;;;5012857;28;20228;-78
2024/02/11 00:33:47;;;;;;;36.07;18.47;;;6.00;99.90;;;;;;4997306;28;20236;-79
2024/02/11 00:36:36;;;;;;;39.73;17.77;;;5.90;99.90;;;;;;5012072;28;20523;-78
2024/02/11 00:39:23;;;;;;;36.43;17.93;;;5.90;99.90;;;;;;5011350;28;20201;-79
2024/02/11 00:42:17;;;;;;;37.70;17.60;;;6.00;99.90;;;;;;5012624;28;20212;-79
2024/02/11 00:45:05;;;;;;;40.77;18.40;;;6.10;99.90;;;;;;4997029;28;20678;-78
2024/02/11 00:47:53;;;;;;;37.70;17.33;;;6.00;99.90;;;;;;5010827;28;20197;-79
2024/02/11 00:50:40;;;;;;;38.97;17.63;;;5.90;99.90;;;;;;5011473;28;20214;-78
2024/02/11 00:53:28;;;;;;;37.37;17.60;;;5.90;99.90;;;;;;4997437;28;20315;-78
2024/02/11 00:56:15;;;;;;;40.73;18.33;;;5.90;99.90;;;;;;5012138;28;20226;-79
2024/02/11 00:59:03;;;;;;;39.17;18.40;;;5.90;99.90;;;;;;5011864;28;20204;-78
2024/02/11 01:01:50;;;;;;;38.97;18.17;;;6.00;99.90;;;;;;5011160;28;20205;-78
2024/02/11 01:04:38;;;;;;;38.93;17.73;;;5.90;99.90;;;;;;4997276;28;20197;-77
2024/02/11 01:07:26;;;;;;;38.70;17.87;;;6.00;99.90;;;;;;5012971;28;20229;-78
2024/02/11 01:10:17;;;;;;;39.70;18.17;;;6.00;99.90;;;;;;5012577;28;20209;-78
2024/02/11 01:13:04;;;;;;;38.63;17.13;;;5.90;99.90;;;;;;4998269;28;20228;-78
2024/02/11 01:15:52;;;;;;;41.33;18.10;;;5.80;99.90;;;;;;5011306;28;20278;-78
2024/02/11 01:18:39;;;;;;;42.77;18.50;;;5.80;99.90;;;;;;5011011;28;20207;-78
2024/02/11 01:21:27;;;;;;;41.07;18.40;;;5.80;99.90;;;;;;5012506;28;20201;-78
2024/02/11 01:24:16;;;;;;;38.87;18.30;;;5.80;99.90;;;;;;5012174;28;20196;-79
2024/02/11 01:27:03;;;;;;;41.40;18.63;;;5.90;99.90;;;;;;5013286;28;20270;-78
2024/02/11 01:29:51;;;;;;;40.83;18.70;;;5.80;99.90;;;;;;5015135;28;20195;-78
2024/02/11 01:32:38;;;;;;;38.77;18.37;;;5.80;99.90;;;;;;5016593;28;20333;-78
2024/02/11 01:35:25;;;;;;;41.67;19.00;;;5.80;99.90;;;;;;5015666;28;20678;-78
2024/02/11 01:38:13;;;;;;;39.60;18.83;;;5.70;99.90;;;;;;5001028;28;20227;-79
2024/02/11 01:41:00;;;;;;;40.67;18.73;;;5.70;99.90;;;;;;5014647;28;20196;-78
2024/02/11 01:43:48;;;;;;;37.97;18.37;;;5.80;99.90;;;;;;5014157;28;20270;-78
2024/02/11 01:46:38;;;;;;;42.03;18.90;;;5.80;99.90;;;;;;5015075;28;20192;-78
2024/02/11 01:49:26;;;;;;;41.53;19.23;;;5.70;99.90;;;;;;5014369;28;20582;-78
2024/02/11 01:52:14;;;;;;;40.20;17.87;;;5.70;99.90;;;;;;5001448;28;20211;-78
2024/02/11 01:55:04;;;;;;;44.07;19.07;;;5.70;99.90;;;;;;5014238;28;20199;-78
2024/02/11 01:57:52;;;;;;;40.03;18.53;;;5.70;99.90;;;;;;5001100;28;20722;-78
2024/02/11 02:00:41;;;;;;;39.93;18.13;;;5.70;99.90;;;;;;5015093;28;20209;-78
2024/02/11 02:03:28;;;;;;;37.37;17.77;;;5.60;99.90;;;;;;5015988;28;20216;-78
2024/02/11 02:06:16;;;;;;;41.53;17.70;;;5.50;99.90;;;;;;5015240;28;20227;-78
2024/02/11 02:09:04;;;;;;;40.17;18.63;;;5.70;99.90;;;;;;5013426;28;20210;-78
2024/02/11 02:11:51;;;;;;;39.53;18.37;;;5.60;99.90;;;;;;5014670;28;20309;-78
2024/02/11 02:14:39;;;;;;;42.73;18.80;;;5.60;99.90;;;;;;5014675;28;20228;-78
2024/02/11 02:17:26;;;;;;;41.10;18.50;;;5.60;99.90;;;;;;5013692;28;20207;-78
2024/02/11 02:20:14;;;;;;;40.60;18.37;;;5.60;99.90;;;;;;5015223;28;20196;-79
2024/02/11 02:23:02;;;;;;;38.30;18.33;;;5.60;99.90;;;;;;5014047;28;20197;-79
2024/02/11 02:25:49;;;;;;;40.47;18.33;;;5.60;99.90;;;;;;5014629;28;20197;-78
2024/02/11 02:28:37;;;;;;;41.40;17.57;;;5.60;99.90;;;;;;5000291;28;20668;-78
2024/02/11 02:31:24;;;;;;;37.83;18.17;;;5.60;99.90;;;;;;5014307;28;20666;-79
2024/02/11 02:34:11;;;;;;;37.77;18.10;;;5.60;99.90;;;;;;5014831;28;20223;-79
2024/02/11 02:36:59;;;;;;;37.13;18.07;;;5.70;99.90;;;;;;5025768;28;20204;-78
2024/02/11 02:39:46;;;;;;;39.07;17.73;;;5.70;99.90;;;;;;5015086;28;20198;-78
2024/02/11 02:42:33;;;;;;;37.23;17.77;;;5.80;99.90;;;;;;5013099;28;20684;-78
2024/02/11 02:45:20;;;;;;;32.77;17.73;;;5.70;99.90;;;;;;4998766;28;20196;-78
2024/02/11 02:48:08;;;;;;;36.20;17.83;;;5.70;99.90;;;;;;5013576;28;20194;-78
2024/02/11 02:50:57;;;;;;;35.03;17.60;;;5.60;99.90;;;;;;5012924;28;20268;-78
2024/02/11 02:53:44;;;;;;;36.30;17.50;;;5.60;99.90;;;;;;5000188;28;20343;-78
2024/02/11 02:56:34;;;;;;;35.87;16.97;;;5.70;99.90;;;;;;5012916;28;20601;-78
2024/02/11 02:59:21;;;;;;;36.53;18.03;;;5.70;99.90;;;;;;5014424;28;20378;-78
2024/02/11 03:02:10;;;;;;;37.40;18.43;;;5.80;99.90;;;;;;4999900;28;20239;-78
2024/02/11 03:04:58;;;;;;;35.83;16.87;;;5.80;99.90;;;;;;5012798;28;20261;-78
2024/02/11 03:07:46;;;;;;;32.27;16.50;;;5.70;99.90;;;;;;5013386;28;20325;-78
2024/02/11 03:10:33;;;;;;;37.13;17.20;;;5.70;99.90;;;;;;5000292;28;20197;-78
2024/02/11 03:13:20;;;;;;;35.63;17.53;;;5.80;99.90;;;;;;5013603;28;20226;-78
2024/02/11 03:16:08;;;;;;;33.57;17.00;;;5.80;99.90;;;;;;5014056;28;20189;-78
2024/02/11 03:18:55;;;;;;;32.43;17.10;;;5.80;99.90;;;;;;5012417;28;20280;-78
2024/02/11 03:21:48;;;;;;;33.43;16.83;;;5.80;99.90;;;;;;5013519;28;20207;-78
2024/02/11 03:24:41;;;;;;;34.13;17.70;;;5.80;99.90;;;;;;4999872;28;20254;-78
2024/02/11 03:27:30;;;;;;;36.93;18.03;;;5.80;99.90;;;;;;5013816;28;20254;-78
2024/02/11 03:30:21;;;;;;;31.70;16.40;;;5.70;99.90;;;;;;5012804;28;20198;-78
2024/02/11 03:33:08;;;;;;;31.03;16.97;;;5.80;99.90;;;;;;5013730;28;20560;-78
2024/02/11 03:35:56;;;;;;;33.00;16.43;;;5.80;99.90;;;;;;5013770;28;20552;-78
2024/02/11 03:38:44;;;;;;;35.80;17.60;;;5.70;99.90;;;;;;4998692;28;20275;-78
2024/02/11 03:41:31;;;;;;;30.77;16.60;;;5.70;99.90;;;;;;5012181;28;20696;-78
2024/02/11 03:44:18;;;;;;;35.23;16.97;;;5.70;99.90;;;;;;5014164;28;20201;-78
2024/02/11 03:47:06;;;;;;;33.37;16.70;;;5.90;99.90;;;;;;5012099;28;20216;-78
2024/02/11 03:49:53;;;;;;;35.23;16.60;;;5.80;99.90;;;;;;5012203;28;20196;-78
2024/02/11 03:52:41;;;;;;;30.30;16.60;;;5.80;99.90;;;;;;5012615;28;20224;-78
2024/02/11 03:55:29;;;;;;;31.67;16.70;;;5.80;99.90;;;;;;5012656;28;20673;-78
2024/02/11 03:58:17;;;;;;;33.37;16.77;;;5.80;99.90;;;;;;5012138;28;20242;-78
2024/02/11 04:01:05;;;;;;;32.03;16.87;;;5.80;99.90;;;;;;5012178;28;20290;-78
2024/02/11 04:03:52;;;;;;;32.23;16.57;;;5.80;99.90;;;;;;5011794;28;20655;-78
2024/02/11 04:06:41;;;;;;;31.30;16.57;;;5.80;99.90;;;;;;5012719;28;20238;-78
2024/02/11 04:09:28;;;;;;;34.47;17.30;;;5.80;99.90;;;;;;5011319;28;20189;-78
2024/02/11 04:12:16;;;;;;;29.47;16.13;;;5.80;99.90;;;;;;4999664;28;20286;-78
2024/02/11 04:15:09;;;;;;;33.87;16.77;;;5.80;99.90;;;;;;5012458;28;20621;-78
2024/02/11 04:18:07;;;;;;;31.47;16.07;;;5.80;99.90;;;;;;4998491;28;20212;-78
2024/02/11 04:20:55;;;;;;;33.27;16.97;;;5.80;99.90;;;;;;4997667;28;20193;-77
2024/02/11 04:23:46;;;;;;;30.43;16.03;;;5.80;99.90;;;;;;5011794;28;20238;-78
2024/02/11 04:26:36;;;;;;;29.77;15.40;;;5.80;99.90;;;;;;4998936;28;20362;-78
2024/02/11 04:29:24;;;;;;;33.33;16.37;;;5.80;99.90;;;;;;5012229;28;20203;-78
2024/02/11 04:32:11;;;;;;;30.60;15.77;;;5.70;99.90;;;;;;5013117;28;20205;-78
2024/02/11 04:34:59;;;;;;;32.70;15.57;;;5.80;99.90;;;;;;4997051;28;20245;-78
2024/02/11 04:37:55;;;;;;;30.00;16.13;;;5.80;99.90;;;;;;4999175;28;20206;-78
2024/02/11 04:40:43;;;;;;;30.47;15.63;;;5.80;99.90;;;;;;5012521;28;20681;-78
2024/02/11 04:43:34;;;;;;;31.23;15.30;;;5.70;99.90;;;;;;4996621;28;20208;-79
2024/02/11 04:46:23;;;;;;;25.97;14.67;;;5.80;99.90;;;;;;5013263;28;20343;-79
2024/02/11 04:49:10;;;;;;;29.53;15.23;;;5.80;99.90;;;;;;4998352;28;20310;-78
2024/02/11 04:52:00;;;;;;;31.20;16.07;;;5.90;99.90;;;;;;4997754;28;20671;-78
2024/02/11 04:54:47;;;;;;;28.83;14.87;;;5.90;99.90;;;;;;5011513;28;20226;-78
2024/02/11 04:57:38;;;;;;;26.87;14.93;;;5.90;99.90;;;;;;4998071;28;20221;-78
2024/02/11 05:00:27;;;;;;;27.10;15.53;;;5.90;99.90;;;;;;5010839;28;20193;-78
2024/02/11 05:03:18;;;;;;;28.97;15.70;;;5.90;99.90;;;;;;5015576;28;20659;-78
2024/02/11 05:06:07;;;;;;;28.87;15.00;;;5.90;99.90;;;;;;5016093;28;20360;-78
2024/02/11 05:08:56;;;;;;;24.93;14.30;;;6.10;99.90;;;;;;5015236;28;20248;-78
2024/02/11 05:11:45;;;;;;;27.10;14.37;;;5.90;99.90;;;;;;5015906;28;20219;-77
2024/02/11 05:14:34;;;;;;;27.93;14.80;;;5.90;99.90;;;;;;5015903;28;20234;-78
2024/02/11 05:17:21;;;;;;;29.47;14.60;;;6.00;99.90;;;;;;5015095;28;20201;-78
2024/02/11 05:20:12;;;;;;;25.50;14.97;;;5.90;99.90;;;;;;5001522;28;20195;-78
2024/02/11 05:23:00;;;;;;;24.87;14.20;;;6.00;99.90;;;;;;5015524;28;20206;-78
2024/02/11 05:25:49;;;;;;;25.87;14.17;;;5.90;99.90;;;;;;5002934;28;20233;-78
2024/02/11 05:28:36;;;;;;;25.60;14.30;;;5.90;99.90;;;;;;5014858;28;20208;-78
2024/02/11 05:31:26;;;;;;;25.90;14.53;;;5.90;99.90;;;;;;5015021;28;20344;-78
2024/02/11 05:34:13;;;;;;;26.70;14.73;;;5.90;99.90;;;;;;5015004;28;20229;-78
2024/02/11 05:37:01;;;;;;;30.00;15.03;;;5.90;99.90;;;;;;5015856;28;20197;-78
2024/02/11 05:39:48;;;;;;;27.87;14.43;;;5.90;99.90;;;;;;5014399;28;20229;-78
2024/02/11 05:42:42;;;;;;;26.20;14.13;;;5.90;99.90;;;;;;5014896;28;20718;-78
2024/02/11 05:45:30;;;;;;;23.70;13.53;;;5.90;99.90;;;;;;5000470;28;20330;-78
2024/02/11 05:48:17;;;;;;;24.83;14.67;;;5.90;99.90;;;;;;5015290;28;20197;-78
2024/02/11 05:51:06;;;;;;;27.90;15.27;;;5.90;99.90;;;;;;5000410;28;20664;-78
2024/02/11 05:53:54;;;;;;;26.03;14.67;;;5.80;99.90;;;;;;5014224;28;20225;-78
2024/02/11 05:56:42;;;;;;;28.33;15.80;;;5.90;99.90;;;;;;4999433;28;20703;-78
2024/02/11 05:59:30;;;;;;;26.97;15.47;;;5.80;99.90;;;;;;5016022;28;20209;-78
2024/02/11 06:02:17;;;;;;;23.73;14.33;;;5.80;99.90;;;;;;5013977;28;20322;-78
2024/02/11 06:05:06;;;;;;;24.73;14.30;;;5.90;99.90;;;;;;5015305;28;20196;-78
2024/02/11 06:07:59;;;;;;;23.13;13.90;;;5.90;99.90;;;;;;5015726;28;20701;-78
2024/02/11 06:10:48;;;;;;;26.57;14.27;;;5.80;99.90;;;;;;5014330;28;20203;-78
2024/02/11 06:13:35;;;;;;;26.67;15.30;;;5.80;99.90;;;;;;4999739;28;20595;-78
2024/02/11 06:16:23;;;;;;;25.83;14.83;;;6.00;99.90;;;;;;4999832;28;20196;-78
2024/02/11 06:19:10;;;;;;;28.43;15.73;;;5.80;99.90;;;;;;4999757;28;20651;-78
2024/02/11 06:21:59;;;;;;;27.00;15.27;;;5.90;99.90;;;;;;5014655;28;20204;-78
2024/02/11 06:24:46;;;;;;;26.67;14.97;;;5.90;99.90;;;;;;5014085;28;20208;-77
2024/02/11 06:27:36;;;;;;;25.37;14.37;;;5.90;99.90;;;;;;5013489;28;20270;-78
2024/02/11 06:30:24;;;;;;;26.80;15.33;;;5.90;99.90;;;;;;5014133;28;20209;-78
2024/02/11 06:33:12;;;;;;;28.40;15.73;;;5.90;99.90;;;;;;5013265;28;20268;-78
2024/02/11 06:35:59;;;;;;;27.17;14.63;;;6.00;99.90;;;;;;5015011;28;20231;-78
2024/02/11 06:38:47;;;;;;;27.23;14.73;;;6.00;99.90;;;;;;5000572;28;20284;-78
2024/02/11 06:41:35;;;;;;;25.87;14.40;;;5.90;99.90;;;;;;5000727;28;20226;-78
2024/02/11 06:44:26;;;;;;;27.83;15.87;;;6.00;99.90;;;;;;5013660;28;20191;-78
2024/02/11 06:47:14;;;;;;;26.97;15.07;;;5.90;99.90;;;;;;5013359;28;20651;-78
2024/02/11 06:50:03;;;;;;;28.80;15.40;;;5.90;99.90;;;;;;5013201;28;20627;-78
2024/02/11 06:52:51;;;;;;;34.07;16.67;;;5.90;99.90;;;;;;5013697;28;20188;-79
2024/02/11 06:55:39;;;;;;;25.77;14.67;;;5.90;99.90;;;;;;5000618;28;20303;-78
2024/02/11 06:58:26;;;;;;;28.90;14.97;;;5.90;99.90;;;;;;4999089;28;20224;-78
2024/02/11 07:01:14;;;;;;;26.53;14.73;;;5.90;99.90;;;;;;4999609;28;20197;-79
2024/02/11 07:04:02;;;;;;;30.63;15.47;;;5.90;99.90;;;;;;5012801;28;20200;-79
2024/02/11 07:06:53;;;;;;;25.67;15.23;;;6.00;99.90;;;;;;5013449;28;20319;-79
2024/02/11 07:09:41;;;;;;;25.97;15.33;;;5.90;99.90;;;;;;5013288;28;20575;-78
2024/02/11 07:12:28;;;;;;;26.07;15.40;;;5.90;99.90;;;;;;5015687;28;20213;-78
2024/02/11 07:15:16;;;;;;;31.87;16.23;;;6.00;99.90;;;;;;5013505;28;20222;-78
2024/02/11 07:18:04;;;;;;;27.30;15.13;;;6.00;99.90;;;;;;5012367;28;20192;-79
2024/02/11 07:20:51;;;;;;;28.40;15.73;;;5.90;99.90;;;;;;4999750;28;20193;-79
2024/02/11 07:23:40;;;;;;;32.03;16.47;;;6.00;99.90;;;;;;5013039;28;20206;-79
2024/02/11 07:26:28;;;;;;;28.87;15.93;;;5.90;99.90;;;;;;4999247;28;20376;-78
2024/02/11 07:29:17;;;;;;;30.43;16.07;;;6.00;99.90;;;;;;5012776;28;20211;-79
2024/02/11 07:32:05;;;;;;;32.37;16.30;;;6.00;99.90;;;;;;4998878;28;20198;-79
2024/02/11 07:34:56;;;;;;;29.83;16.17;;;6.00;99.90;;;;;;5012708;28;20248;-79
2024/02/11 07:37:43;;;;;;;28.73;16.73;;;6.00;99.90;;;;;;5012747;28;20204;-79
2024/02/11 07:40:31;;;;;;;29.63;16.63;;;6.10;99.90;;;;;;5012269;28;20194;-79
2024/02/11 07:43:18;;;;;;;28.70;15.47;;;6.10;99.90;;;;;;4999139;28;20291;-79
2024/02/11 07:46:07;;;;;;;31.17;16.20;;;6.20;99.90;;;;;;5013680;28;20198;-78
2024/02/11 07:48:55;;;;;;;34.10;16.67;;;6.20;99.90;;;;;;5013060;28;20283;-79
2024/02/11 07:51:44;;;;;;;27.80;15.73;;;6.40;99.90;;;;;;5012891;28;20230;-78
2024/02/11 07:54:33;;;;;;;30.03;16.17;;;6.30;99.90;;;;;;5012083;28;20228;-78
2024/02/11 07:57:20;;;;;;;30.80;17.20;;;6.40;99.90;;;;;;4997590;28;20215;-79
2024/02/11 08:00:08;;;;;;;29.53;16.57;;;6.40;99.90;;;;;;5013039;28;20201;-78
2024/02/11 08:02:55;;;;;;;31.40;16.30;;;6.40;99.90;;;;;;5013645;28;20193;-79
2024/02/11 08:05:44;;;;;;;31.93;17.50;;;6.40;99.90;;;;;;5011515;28;20195;-78
2024/02/11 08:08:33;;;;;;;31.37;16.33;;;6.50;99.90;;;;;;5012611;28;20201;-79
2024/02/11 08:11:21;;;;;;;30.60;16.13;;;6.50;99.90;;;;;;5012273;28;20210;-78
2024/02/11 08:14:10;;;;;;;27.33;16.20;;;6.50;99.90;;;;;;4995004;28;20209;-79
2024/02/11 08:16:57;;;;;;;30.43;16.00;;;6.50;99.90;;;;;;5012160;28;20653;-78
2024/02/11 08:19:45;;;;;;;32.20;17.50;;;6.60;99.90;;;;;;5012713;28;20202;-79
2024/02/11 08:22:36;;;;;;;30.53;17.00;;;6.50;99.90;;;;;;5016236;28;20219;-79
2024/02/11 08:25:23;;;;;;;32.00;17.60;;;6.60;99.90;;;;;;5002605;28;20198;-79
2024/02/11 08:28:11;;;;;;;32.23;18.23;;;6.70;99.90;;;;;;5014961;28;20249;-79
2024/02/11 08:30:58;;;;;;;35.90;17.07;;;6.70;99.90;;;;;;4997152;28;20205;-78
2024/02/11 08:33:46;;;;;;;30.93;17.20;;;6.70;99.90;;;;;;5013563;28;20202;-78
2024/02/11 08:36:34;;;;;;;31.27;16.87;;;6.80;99.90;;;;;;5012006;28;20202;-78
2024/02/11 08:39:25;;;;;;;32.43;17.07;;;6.80;99.90;;;;;;5012127;28;20604;-78
2024/02/11 08:42:14;;;;;;;34.37;17.80;;;6.90;99.90;;;;;;4997443;28;20291;-78
2024/02/11 08:45:01;;;;;;;33.23;17.43;;;6.90;99.90;;;;;;4997729;28;20202;-79
2024/02/11 08:47:50;;;;;;;34.00;17.73;;;7.00;99.90;;;;;;5011414;28;20195;-79
2024/02/11 08:50:38;;;;;;;35.47;17.77;;;7.00;99.90;;;;;;5010739;28;20572;-79
2024/02/11 08:53:28;;;;;;;32.43;17.83;;;7.10;99.90;;;;;;5010758;28;20209;-79
2024/02/11 08:56:17;;;;;;;32.93;18.03;;;7.20;99.90;;;;;;4997635;28;20694;-79
2024/02/11 08:59:06;;;;;;;32.60;17.47;;;7.10;99.90;;;;;;5011653;28;20226;-79
2024/02/11 09:01:54;;;;;;;35.87;17.60;;;7.10;99.90;;;;;;4998069;28;20210;-79
2024/02/11 09:04:42;;;;;;;36.80;18.47;;;7.20;99.90;;;;;;5011066;28;20781;-79
2024/02/11 09:07:31;;;;;;;35.63;17.53;;;7.20;99.90;;;;;;4997915;28;20226;-78
2024/02/11 09:10:19;;;;;;;33.80;18.07;;;7.20;99.90;;;;;;5011193;28;20205;-78
2024/02/11 09:13:06;;;;;;;34.10;17.83;;;7.30;99.90;;;;;;5010711;28;20218;-78
2024/02/11 09:15:53;;;;;;;34.07;17.33;;;7.30;99.90;;;;;;5011973;28;20227;-78
2024/02/11 09:18:40;;;;;;;30.37;16.90;;;7.40;99.90;;;;;;5011355;28;20276;-78
2024/02/11 09:21:28;;;;;;;31.27;16.97;;;7.40;99.90;;;;;;4996769;28;20267;-78
2024/02/11 09:24:17;;;;;;;31.53;17.13;;;7.50;99.90;;;;;;5010514;28;20209;-78
2024/02/11 09:27:07;;;;;;;31.20;17.90;;;7.40;99.90;;;;;;4996901;28;20213;-78
2024/02/11 09:29:54;;;;;;;34.00;17.67;;;7.50;99.90;;;;;;5011221;28;20294;-78
2024/02/11 09:32:41;;;;;;;31.10;17.47;;;7.50;99.90;;;;;;5010711;28;20205;-78
2024/02/11 09:35:29;;;;;;;33.83;17.33;;;7.50;99.90;;;;;;5011565;28;20225;-78
2024/02/11 09:38:17;;;;;;;32.80;17.50;;;7.60;99.90;;;;;;5011075;28;20282;-78
2024/02/11 09:41:06;;;;;;;31.77;17.13;;;7.70;99.90;;;;;;5011349;28;20206;-78
2024/02/11 09:43:56;;;;;;;29.83;17.53;;;7.80;99.90;;;;;;4997571;28;20662;-78
2024/02/11 09:46:46;;;;;;;31.47;17.00;;;7.80;99.90;;;;;;4997724;28;20205;-78
2024/02/11 09:49:37;;;;;;;31.73;16.83;;;7.80;99.90;;;;;;5015812;28;20196;-78
2024/02/11 09:52:25;;;;;;;28.53;16.97;;;7.90;99.90;;;;;;5015254;28;20203;-79
2024/02/11 09:55:13;;;;;;;28.50;17.20;;;7.90;99.90;;;;;;5000561;28;20223;-78
2024/02/11 09:58:01;;;;;;;32.77;16.70;;;8.00;99.90;;;;;;5001641;28;20219;-78
2024/02/11 10:00:48;;;;;;;28.70;16.50;;;8.00;99.90;;;;;;5014879;28;20579;-78
2024/02/11 10:03:37;;;;;;;30.47;16.50;;;8.10;99.90;;;;;;5014436;28;20209;-79
2024/02/11 10:06:32;;;;;;;27.83;16.03;;;8.20;99.90;;;;;;5015314;28;20242;-79
2024/02/11 10:09:22;;;;;;;29.83;16.30;;;8.30;99.90;;;;;;5013517;28;20673;-79
2024/02/11 10:12:10;;;;;;;28.77;15.90;;;8.30;99.90;;;;;;5014739;28;20233;-79
2024/02/11 10:14:58;;;;;;;30.30;15.97;;;8.20;99.90;;;;;;5000147;28;20343;-78
2024/02/11 10:17:46;;;;;;;29.93;16.63;;;8.20;99.90;;;;;;4999583;28;20204;-78
2024/02/11 10:20:38;;;;;;;29.87;16.77;;;8.20;99.90;;;;;;5014179;28;20685;-79
2024/02/11 10:23:25;;;;;;;28.63;16.67;;;8.20;99.90;;;;;;5015134;28;20229;-80
2024/02/11 10:26:13;;;;;;;30.40;16.67;;;8.30;99.90;;;;;;4999666;28;20393;-78
2024/02/11 10:29:04;;;;;;;28.40;16.30;;;8.30;99.90;;;;;;5000566;28;20202;-80
2024/02/11 10:31:53;;;;;;;27.93;16.00;;;8.30;99.90;;;;;;5013387;28;20338;-79
2024/02/11 10:34:42;;;;;;;31.27;16.70;;;8.40;99.90;;;;;;5013405;28;20238;-78
2024/02/11 10:37:35;;;;;;;28.07;16.20;;;8.40;99.90;;;;;;5013358;28;20202;-79
2024/02/11 10:40:24;;;;;;;31.37;16.90;;;8.40;99.90;;;;;;4999382;28;20198;-79
2024/02/11 10:43:15;;;;;;;28.70;16.13;;;8.50;99.90;;;;;;5000486;28;20213;-79
2024/02/11 10:46:03;;;;;;;30.23;16.00;;;8.50;99.90;;;;;;5015054;28;20213;-79
2024/02/11 10:48:51;;;;;;;27.70;15.70;;;8.60;99.90;;;;;;5000392;28;20310;-78
2024/02/11 10:51:45;;;;;;;27.17;15.57;;;8.60;99.90;;;;;;5012701;28;20289;-78
2024/02/11 10:54:45;;;;;;;26.83;15.70;;;8.60;99.90;;;;;;4999627;28;20578;-79
2024/02/11 10:58:04;;;;;;;24.83;15.67;;;8.70;99.90;;;;;;5013486;28;20591;-79
2024/02/11 11:00:52;;;;;;;32.23;15.87;;;8.70;99.90;;;;;;4998960;28;20199;-79
2024/02/11 11:03:45;;;;;;;26.00;15.97;;;8.80;99.90;;;;;;5013817;28;20199;-80
2024/02/11 11:06:35;;;;;;;27.10;15.40;;;8.80;99.90;;;;;;5013660;28;20241;-78
2024/02/11 11:09:23;;;;;;;26.60;15.80;;;8.70;99.90;;;;;;4999746;28;20682;-80
2024/02/11 11:12:15;;;;;;;29.43;16.17;;;8.80;99.90;;;;;;5013535;28;20218;-79
2024/02/11 11:15:08;;;;;;;28.77;15.77;;;8.80;99.90;;;;;;5013583;28;20661;-79
2024/02/11 11:17:58;;;;;;;30.83;16.20;;;8.80;99.90;;;;;;5013448;28;20196;-80
2024/02/11 11:20:55;;;;;;;26.87;15.03;;;8.90;99.90;;;;;;5013391;28;20199;-79
2024/02/11 11:23:47;;;;;;;28.87;15.50;;;8.90;99.90;;;;;;5014785;28;20195;-78
2024/02/11 11:26:34;;;;;;;28.37;15.23;;;9.00;99.90;;;;;;5013022;28;20219;-79
2024/02/11 11:29:27;;;;;;;25.57;14.63;;;9.00;99.90;;;;;;5013862;28;20199;-78
2024/02/11 11:32:22;;;;;;;29.27;14.40;;;9.00;99.90;;;;;;4999203;28;20215;-78
2024/02/11 11:35:12;;;;;;;22.83;14.50;;;9.10;99.90;;;;;;5013934;28;20217;-78
2024/02/11 11:38:00;;;;;;;24.17;14.20;;;9.20;99.90;;;;;;5013424;28;20207;-77
2024/02/11 11:40:51;;;;;;;25.47;14.73;;;9.30;99.90;;;;;;5012119;28;20576;-79
2024/02/11 11:43:38;;;;;;;27.27;15.10;;;9.40;99.90;;;;;;5013122;28;20203;-78
2024/02/11 11:46:26;;;;;;;24.83;14.43;;;9.40;99.90;;;;;;4998561;28;20192;-78
2024/02/11 11:49:14;;;;;;;24.83;13.83;;;9.40;99.90;;;;;;5012255;28;20678;-79
2024/02/11 11:52:03;;;;;;;26.20;14.23;;;9.40;99.90;;;;;;5013444;28;20195;-79
2024/02/11 11:54:50;;;;;;;22.87;13.57;;;9.50;99.90;;;;;;4998830;28;20203;-79
2024/02/11 11:57:38;;;;;;;24.37;13.30;;;9.50;99.90;;;;;;5012010;28;20219;-79
2024/02/11 12:00:25;;;;;;;25.97;13.03;;;9.40;99.90;;;;;;5012773;28;20223;-78
2024/02/11 12:03:12;;;;;;;23.77;14.17;;;9.40;99.90;;;;;;4998415;28;20202;-78
2024/02/11 12:06:00;;;;;;;25.17;14.20;;;9.60;99.90;;;;;;5011246;28;20231;-79
2024/02/11 12:08:48;;;;;;;23.43;13.80;;;9.60;99.90;;;;;;4998764;28;20207;-79
2024/02/11 12:11:35;;;;;;;26.40;13.67;;;9.60;99.90;;;;;;5012637;28;20218;-79
2024/02/11 12:14:23;;;;;;;28.03;13.93;;;9.70;99.90;;;;;;5011241;28;20195;-79
2024/02/11 12:17:11;;;;;;;23.93;14.00;;;9.80;99.90;;;;;;4997830;28;20219;-79
2024/02/11 12:20:00;;;;;;;24.27;13.93;;;10.00;99.90;;;;;;4998064;28;20250;-79
2024/02/11 12:22:48;;;;;;;23.13;12.47;;;10.00;99.90;;;;;;5011805;28;20208;-79
2024/02/11 12:25:35;;;;;;;24.03;13.97;;;10.00;99.90;;;;;;5013784;28;20203;-79
2024/02/11 12:28:33;;;;;;;22.37;13.23;;;10.20;99.90;;;;;;5012063;28;20353;-79
2024/02/11 12:31:21;;;;;;;20.93;13.10;;;10.30;99.90;;;;;;4997782;28;20374;-79
2024/02/11 12:34:11;;;;;;;24.40;12.27;;;10.40;99.90;;;;;;5011905;28;20227;-79
2024/02/11 12:37:03;;;;;;;28.60;12.63;;;10.50;99.90;;;;;;4997883;28;20231;-78
2024/02/11 12:39:54;;;;;;;19.37;11.77;;;10.40;99.90;;;;;;4999122;28;20287;-79
2024/02/11 12:42:44;;;;;;;22.47;12.47;;;10.30;99.90;;;;;;5013064;28;20211;-79
2024/02/11 12:45:32;;;;;;;25.17;12.50;;;10.40;99.90;;;;;;5011381;28;20602;-78
2024/02/11 12:48:19;;;;;;;18.63;11.47;;;10.40;99.90;;;;;;4997497;28;20226;-78
2024/02/11 12:51:11;;;;;;;23.93;12.83;;;10.40;99.90;;;;;;5011118;28;20718;-78
2024/02/11 12:53:58;;;;;;;21.57;12.03;;;10.50;99.90;;;;;;5012496;28;20203;-78
2024/02/11 12:56:46;;;;;;;20.63;12.17;;;10.50;99.90;;;;;;5012508;28;20230;-78
2024/02/11 12:59:33;;;;;;;23.03;11.60;;;10.40;99.90;;;;;;5011536;28;20192;-78
2024/02/11 13:02:21;;;;;;;25.07;11.73;;;10.50;99.90;;;;;;5011851;28;20192;-78
2024/02/11 13:05:13;;;;;;;25.60;13.03;;;10.50;99.90;;;;;;4997368;28;20196;-79
2024/02/11 13:08:02;;;;;;;24.20;11.83;;;10.50;99.90;;;;;;5012154;28;20219;-79
2024/02/11 13:10:50;;;;;;;21.60;11.53;;;10.50;99.90;;;;;;5010955;28;20193;-79
2024/02/11 13:13:38;;;;;;;22.10;11.73;;;10.60;99.90;;;;;;5010927;28;20321;-79
2024/02/11 13:16:26;;;;;;;20.20;12.10;;;10.60;99.90;;;;;;5012432;28;20223;-78
2024/02/11 13:19:15;;;;;;;24.40;12.00;;;10.50;99.90;;;;;;4996587;28;20196;-78
2024/02/11 13:22:03;;;;;;;22.60;11.20;;;10.60;99.90;;;;;;5010988;28;20228;-80
2024/02/11 13:24:53;;;;;;;19.03;11.13;;;10.60;99.90;;;;;;5015353;28;20196;-79
2024/02/11 13:27:41;;;;;;;23.73;11.33;;;10.60;99.90;;;;;;5014902;28;20262;-79
2024/02/11 13:30:32;;;;;;;27.60;11.70;;;10.60;99.90;;;;;;5015500;28;20207;-79
2024/02/11 13:33:19;;;;;;;20.70;11.33;;;10.60;99.90;;;;;;5016959;28;20675;-79
2024/02/11 13:36:10;;;;;;;26.60;12.97;;;10.60;99.90;;;;;;5015388;28;20219;-79
2024/02/11 13:38:57;;;;;;;23.83;12.00;;;10.50;99.90;;;;;;5014665;28;20211;-78
2024/02/11 13:41:45;;;;;;;23.43;11.83;;;10.60;99.90;;;;;;5014050;28;20215;-79
2024/02/11 13:44:34;;;;;;;19.13;10.87;;;10.60;99.90;;;;;;5016819;28;20201;-79
2024/02/11 13:47:21;;;;;;;21.37;11.83;;;10.60;99.90;;;;;;5014325;28;20199;-79
2024/02/11 13:50:10;;;;;;;21.30;11.60;;;10.70;99.90;;;;;;5000844;28;20715;-79
2024/02/11 13:52:59;;;;;;;19.67;11.20;;;10.70;99.90;;;;;;5015067;28;20215;-78
2024/02/11 13:55:46;;;;;;;23.47;11.37;;;10.70;99.90;;;;;;5000790;28;20219;-80
2024/02/11 13:58:40;;;;;;;22.23;11.30;;;10.70;99.90;;;;;;5013918;28;20218;-79
2024/02/11 14:01:30;;;;;;;17.60;10.63;;;10.70;99.90;;;;;;5015350;28;20238;-80
2024/02/11 14:04:18;;;;;;;21.97;11.57;;;10.70;99.90;;;;;;5000104;28;20281;-79
2024/02/11 14:07:06;;;;;;;22.50;11.27;;;10.60;99.90;;;;;;5013888;28;20239;-77
2024/02/11 14:09:55;;;;;;;18.90;10.57;;;10.60;99.90;;;;;;5016010;28;20720;-78
2024/02/11 14:12:43;;;;;;;19.67;11.07;;;10.60;99.90;;;;;;5015588;28;20664;-78
2024/02/11 14:15:35;;;;;;;19.40;11.30;;;10.50;99.90;;;;;;5013613;28;20192;-78
2024/02/11 14:18:23;;;;;;;17.93;10.27;;;10.60;99.90;;;;;;4999724;28;20197;-78
2024/02/11 14:21:10;;;;;;;17.27;10.40;;;10.50;99.90;;;;;;5014711;28;20191;-78
2024/02/11 14:24:00;;;;;;;19.77;10.70;;;10.50;99.90;;;;;;5016689;28;20206;-78